Time;durP1;ratioP1;P1;durP2;ratioP2;P2;SDS_P1;SDS_P2;PMS_P1;PMS_P2;Temp;Humidity;BMP_temperature;BMP_pressure;BME280_temperature;BME280_humidity;BME280_pressure;Samples;Min_cycle;Max_cycle;Signal;HPM_P1;HPM_P2
2021/07/11 00:12:03;;;;;;;57.43;22.15;;;;;;;17.02;100.00;100765.83;713978;1203;114814;-74
2021/07/11 00:27:07;;;;;;;26.97;14.50;;;;;;;16.93;100.00;100759.72;713734;1199;115643;-72
2021/07/11 00:42:13;;;;;;;30.80;15.45;;;;;;;16.72;100.00;100757.52;713771;1177;114326;-73
2021/07/11 00:57:16;;;;;;;39.65;17.18;;;;;;;16.62;100.00;100762.14;714248;1200;115868;-72
2021/07/11 01:12:26;;;;;;;14.40;10.08;;;;;;;16.52;100.00;100753.51;714218;1203;114878;-72
2021/07/11 01:27:30;;;;;;;27.95;16.73;;;;;;;16.37;100.00;100763.91;714048;1190;114531;-72
2021/07/11 01:42:34;;;;;;;27.43;13.60;;;;;;;16.19;100.00;100761.36;713739;1200;114577;-72
2021/07/11 01:57:37;;;;;;;19.20;11.38;;;;;;;16.06;100.00;100770.59;714179;1178;114635;-72
2021/07/11 02:13:01;;;;;;;11.18;8.60;;;;;;;15.85;100.00;100788.66;714480;1203;114570;-72
2021/07/11 02:28:05;;;;;;;41.30;22.18;;;;;;;15.71;100.00;100798.81;714203;1203;115065;-72
2021/07/11 02:43:11;;;;;;;16.37;11.17;;;;;;;15.68;100.00;100791.20;714100;1177;114316;-72
2021/07/11 02:58:18;;;;;;;14.85;9.40;;;;;;;15.63;100.00;100793.48;714294;1202;115625;-73
2021/07/11 03:13:21;;;;;;;14.95;9.50;;;;;;;15.60;100.00;100802.56;714370;1200;115712;-72
2021/07/11 03:28:24;;;;;;;14.47;9.57;;;;;;;15.83;100.00;100817.92;714508;1199;114589;-73
2021/07/11 03:43:28;;;;;;;18.60;9.97;;;;;;;16.08;100.00;100837.41;714292;1198;115425;-73
2021/07/11 03:58:39;;;;;;;18.87;11.70;;;;;;;16.38;100.00;100845.81;713860;1193;114783;-73
2021/07/11 04:13:41;;;;;;;15.13;11.33;;;;;;;16.67;100.00;100841.09;714330;1179;114428;-72
2021/07/11 04:28:44;;;;;;;22.67;14.17;;;;;;;17.23;100.00;100849.34;714565;1200;114320;-71
2021/07/11 04:43:46;;;;;;;15.10;13.15;;;;;;;17.79;100.00;100855.59;714370;1199;114137;-73
2021/07/11 04:58:48;;;;;;;22.65;15.60;;;;;;;18.22;100.00;100851.86;714256;1202;115001;-73
2021/07/11 05:13:51;;;;;;;18.18;13.65;;;;;;;18.70;100.00;100855.30;714407;1199;115383;-72
2021/07/11 05:28:53;;;;;;;16.90;12.60;;;;;;;19.23;100.00;100855.45;714220;1199;114585;-72
2021/07/11 05:43:55;;;;;;;13.73;12.25;;;;;;;19.72;100.00;100851.53;714288;1200;115045;-74
2021/07/11 05:58:57;;;;;;;13.10;10.23;;;;;;;20.64;100.00;100857.48;714233;1199;114538;-73
2021/07/11 06:14:00;;;;;;;9.03;8.18;;;;;;;21.25;100.00;100851.75;714708;1200;114562;-74
2021/07/11 06:29:02;;;;;;;8.03;7.10;;;;;;;21.97;100.00;100848.98;714465;1200;114648;-74
2021/07/11 06:44:05;;;;;;;6.78;6.08;;;;;;;22.36;100.00;100847.57;714292;1200;114764;-74
2021/07/11 06:59:07;;;;;;;8.73;5.33;;;;;;;22.96;100.00;100846.90;714773;1200;115087;-72
2021/07/11 07:14:09;;;;;;;5.13;4.40;;;;;;;23.74;100.00;100848.15;714474;1200;114297;-76
2021/07/11 07:29:13;;;;;;;4.43;3.70;;;;;;;24.70;100.00;100840.43;714741;1203;114976;-73
2021/07/11 07:44:15;;;;;;;3.85;3.33;;;;;;;25.39;100.00;100848.61;716108;1177;114134;-89
2021/07/11 07:59:17;;;;;;;6.93;3.50;;;;;;;25.26;100.00;100852.23;714541;1200;116076;-84
2021/07/11 08:14:20;;;;;;;3.75;3.23;;;;;;;25.29;100.00;100849.09;716197;1182;113958;-88
2021/07/11 08:29:22;;;;;;;4.88;2.90;;;;;;;27.24;100.00;100843.03;717056;1200;114859;-90
2021/07/11 08:44:25;;;;;;;2.95;2.60;;;;;;;27.23;94.54;100838.69;716395;1199;114447;-90
2021/07/11 08:59:29;;;;;;;2.75;2.55;;;;;;;28.87;93.95;100828.86;716859;1202;113492;-90
2021/07/11 09:14:34;;;;;;;4.88;2.48;;;;;;;29.65;86.42;100825.45;718388;1177;114598;-91
2021/07/11 09:29:38;;;;;;;3.43;2.65;;;;;;;30.19;83.85;100813.97;718918;1175;114729;-89
2021/07/11 09:44:43;;;;;;;2.60;2.20;;;;;;;30.94;80.98;100811.45;719257;1176;114471;-90
2021/07/11 09:59:45;;;;;;;3.88;2.35;;;;;;;31.55;79.80;100804.81;716791;1199;116562;-89
2021/07/11 10:14:48;;;;;;;3.50;2.13;;;;;;;31.32;74.16;100801.45;716451;1199;114751;-81
2021/07/11 10:29:54;;;;;;;3.88;1.80;;;;;;;31.78;74.91;100806.32;716388;1199;113924;-83
2021/07/11 10:45:07;;;;;;;2.13;1.80;;;;;;;32.47;71.59;100808.97;715302;1203;114933;-76
2021/07/11 11:00:21;;;;;;;6.43;4.83;;;;;;;31.81;68.18;100800.36;715192;1200;114239;-76
2021/07/11 11:15:34;;;;;;;2.40;2.13;;;;;;;32.59;68.81;100795.94;716429;1200;114206;-77
2021/07/11 11:30:40;;;;;;;2.75;2.23;;;;;;;32.51;65.15;100788.34;715731;1179;113850;-77
2021/07/11 11:45:45;;;;;;;2.03;1.80;;;;;;;32.86;64.10;100764.99;714704;1202;114800;-77
2021/07/11 12:00:47;;;;;;;2.30;1.90;;;;;;;32.99;61.42;100764.45;714668;1200;115344;-77
2021/07/11 12:16:00;;;;;;;2.50;2.00;;;;;;;32.75;65.91;100761.48;714564;1200;114243;-75
2021/07/11 12:31:04;;;;;;;2.23;2.03;;;;;;;32.77;61.63;100750.34;714029;1200;115094;-78
2021/07/11 12:46:12;;;;;;;3.00;2.37;;;;;;;32.01;64.66;100737.21;714476;1199;114702;-77
2021/07/11 13:01:15;;;;;;;2.15;1.95;;;;;;;32.44;60.48;100744.34;713924;1202;115366;-77
2021/07/11 13:16:17;;;;;;;3.48;1.90;;;;;;;31.17;63.05;100741.74;714057;1177;113955;-77
2021/07/11 13:31:26;;;;;;;2.23;1.73;;;;;;;32.23;60.96;100728.06;716591;1199;114458;-77
2021/07/11 13:46:41;;;;;;;2.80;2.20;;;;;;;32.91;60.24;100718.81;715548;1199;115536;-76
2021/07/11 14:01:44;;;;;;;3.98;2.90;;;;;;;33.74;59.45;100710.38;714670;1199;115860;-76
2021/07/11 14:16:46;;;;;;;3.00;2.10;;;;;;;31.36;61.27;100702.28;713957;1200;113824;-76
2021/07/11 14:31:50;;;;;;;2.15;1.95;;;;;;;32.31;58.91;100689.53;713888;1203;114142;-76
2021/07/11 14:46:52;;;;;;;1.70;1.55;;;;;;;32.93;59.00;100678.62;714251;1200;114857;-75
2021/07/11 15:01:55;;;;;;;3.48;2.10;;;;;;;30.40;59.29;100658.06;714540;1176;113185;-73
2021/07/11 15:16:57;;;;;;;8.63;7.90;;;;;;;31.59;60.68;100659.53;714879;1200;114305;-75
2021/07/11 15:32:00;;;;;;;2.50;2.05;;;;;;;32.14;59.29;100643.64;715386;1200;114726;-79
2021/07/11 15:47:03;;;;;;;4.05;2.78;;;;;;;31.35;59.04;100634.81;714981;1199;115338;-79
2021/07/11 16:02:06;;;;;;;22.60;11.83;;;;;;;30.15;64.88;100618.91;714365;1200;114832;-78
2021/07/11 16:17:08;;;;;;;7.08;4.85;;;;;;;30.42;63.07;100614.51;720535;1199;116025;-84
2021/07/11 16:32:11;;;;;;;5.08;3.05;;;;;;;30.46;62.99;100602.95;729413;1181;114140;-83
2021/07/11 16:47:13;;;;;;;5.13;4.27;;;;;;;29.54;63.49;100606.43;716196;1188;113777;-79
2021/07/11 17:02:15;;;;;;;5.28;4.63;;;;;;;29.42;66.06;100627.38;714151;1174;114982;-76
2021/07/11 17:17:18;;;;;;;2.00;1.80;;;;;;;29.01;66.82;100616.88;714366;1202;114850;-80
2021/07/11 17:32:23;;;;;;;4.18;2.13;;;;;;;28.63;69.38;100607.69;714936;1179;113964;-76
2021/07/11 17:47:25;;;;;;;2.33;2.13;;;;;;;28.00;70.58;100602.36;714359;1176;113889;-82
2021/07/11 18:02:28;;;;;;;3.27;2.20;;;;;;;27.76;73.93;100598.98;716173;1177;113711;-83
2021/07/11 18:17:30;;;;;;;4.75;2.78;;;;;;;27.10;76.06;100609.28;715406;1200;114550;-76
2021/07/11 18:32:32;;;;;;;3.33;2.77;;;;;;;26.30;78.73;100617.67;714611;1177;113920;-77
2021/07/11 18:47:36;;;;;;;6.35;5.13;;;;;;;25.79;81.68;100640.53;715924;1200;113887;-76
2021/07/11 19:02:40;;;;;;;5.88;4.33;;;;;;;25.32;84.70;100655.34;715487;1174;114196;-76
2021/07/11 19:17:43;;;;;;;8.83;5.48;;;;;;;24.96;87.95;100658.86;714700;1177;113904;-77
2021/07/11 19:32:46;;;;;;;8.63;5.03;;;;;;;24.52;90.84;100664.98;714511;1200;114973;-73
2021/07/11 19:47:48;;;;;;;11.45;6.85;;;;;;;24.06;93.52;100672.30;714245;1176;114828;-73
2021/07/11 20:02:51;;;;;;;6.70;4.05;;;;;;;23.66;96.48;100677.00;716806;1188;114126;-73
2021/07/11 20:17:54;;;;;;;19.45;9.45;;;;;;;23.49;97.94;100661.42;714224;1177;113796;-73
2021/07/11 20:32:56;;;;;;;24.10;16.53;;;;;;;23.13;100.00;100643.18;714301;1199;114958;-71
2021/07/11 20:47:59;;;;;;;30.28;19.35;;;;;;;22.82;100.00;100639.31;714788;1199;115185;-75
2021/07/11 21:03:02;;;;;;;8.70;6.20;;;;;;;22.56;100.00;100638.31;714840;1193;114458;-73
2021/07/11 21:18:04;;;;;;;7.63;5.55;;;;;;;22.36;100.00;100628.44;714294;1199;114923;-72
2021/07/11 21:33:06;;;;;;;7.55;5.28;;;;;;;22.16;100.00;100632.90;714509;1199;115469;-72
2021/07/11 21:48:09;;;;;;;7.73;5.55;;;;;;;22.02;100.00;100650.77;714474;1200;114895;-73
2021/07/11 22:03:11;;;;;;;5.13;3.93;;;;;;;22.22;100.00;100645.45;714610;1199;115178;-72
2021/07/11 22:18:16;;;;;;;11.65;7.75;;;;;;;22.26;100.00;100647.53;714391;1174;113935;-72
2021/07/11 22:33:18;;;;;;;6.40;3.57;;;;;;;21.98;100.00;100645.00;714587;1182;114173;-72
2021/07/11 22:48:21;;;;;;;8.33;4.83;;;;;;;21.74;100.00;100657.87;714845;1200;114469;-73
2021/07/11 23:03:23;;;;;;;6.43;4.10;;;;;;;21.74;100.00;100631.17;714592;1178;115835;-72
2021/07/11 23:18:25;;;;;;;4.68;3.93;;;;;;;21.77;100.00;100633.45;714278;1177;115120;-72
2021/07/11 23:33:28;;;;;;;8.68;4.40;;;;;;;21.77;100.00;100628.12;714090;1201;114912;-72
2021/07/11 23:48:30;;;;;;;8.73;4.08;;;;;;;21.58;100.00;100631.53;713919;1203;114960;-71
